M I D A S
Marine Information and Data Acquisition System
Tripno 730 of the Zeeleeuw from 2004-06-07 06:53:37 to 2004-06-07 15:48:18
Back to CruiseResearch ActivitiesStationsMapUnderway DataData graphs

EquipmentUnitsComments
TimeDGPSUTC
LatitudeDGPSDM.mWGS84
LongitudeDGPSDM.mWGS84
SpeedMeteo Stationm/sRelative wind speed
DirectionMeteo StationdegRelative wind direction
TemperatureMeteo Stationdeg CelciusAir temperature
PressureMeteo StationPaAtmospheric pressure
HumidityMeteo Station%Relative humidity
Missing or incorrect values are displayed as -999
Metereological data collected by the RV Zeeleeuw from 2004-06-07 06:53:37 to 2004-06-07 15:48:18
                                                                                    Next 1000 lines
Time Latitude Longitude Speed Direction Temperature Pressure Humidity
2004-06-07 06:53:46 51°13.597 2°56.096 2 76 18.2 101950 70
2004-06-07 06:53:51 51°13.597 2°56.097 1.9 81 18.2 101950 70
2004-06-07 06:53:56 51°13.597 2°56.097 1.8 83 18.2 101950 70
2004-06-07 06:54:00 51°13.597 2°56.097 2.6 87 18.3 101950 70
2004-06-07 06:54:06 51°13.597 2°56.097 1.9 83 18.3 101950 70
2004-06-07 06:54:11 51°13.597 2°56.097 1.7 83 18.3 101950 70
2004-06-07 06:54:16 51°13.597 2°56.097 2   18.3 101950 70
2004-06-07 06:54:20 51°13.596 2°56.096 1.8 97 18.3 101950 70
2004-06-07 06:54:26 51°13.596 2°56.096 2 87 18.3 101950 70
2004-06-07 06:54:31 51°13.596 2°56.096 1.8 107 18.3 101950 70
2004-06-07 06:54:36 51°13.597 2°56.094 1.7 103 18.3 101950 70
2004-06-07 06:54:40 51°13.597 2°56.092 1.9 110 18.3 101950 70
2004-06-07 06:54:47 51°13.598 2°56.088 1.8 122 18.3 101950 70
2004-06-07 06:54:51 51°13.599 2°56.084 1.7 135 18.3 101950 70
2004-06-07 06:54:56 51°13.601 2°56.078 2.2 158 18.3 101950 70
2004-06-07 06:55:01 51°13.602 2°56.072 2.9 146 18.3 101950 70
2004-06-07 06:55:07 51°13.605 2°56.064 3.3 150 18.3 101950 70
2004-06-07 06:55:12 51°13.607 2°56.056 3.2 149 18.3 101950 70
2004-06-07 06:55:17 51°13.609 2°56.048 3.5   18.3 101950 70
2004-06-07 06:55:22 51°13.612 2°56.04 3.3 137 18.3 101950 70
2004-06-07 06:55:26 51°13.614 2°56.032 3.8 140 18.3 101950 70
2004-06-07 06:55:32 51°13.618 2°56.021 3.3 135 18.3 101950 70
2004-06-07 06:55:37 51°13.621 2°56.012 2.8 145 18.3 101950 70
2004-06-07 06:55:42 51°13.624 2°56.002 2.8 148 18.3 101950 70
2004-06-07 06:55:47 51°13.627 2°55.991 2.9 160 18.3 101950 70
2004-06-07 06:55:52 51°13.63 2°55.981 3.7 152 18.3 101960 70
2004-06-07 06:55:57 51°13.633 2°55.97 3.3 152 18.3 101960 70
2004-06-07 06:56:00 51°13.636 2°55.963 2.8 144 18.3 101960 70
2004-06-07 06:56:07 51°13.641 2°55.948 3.7 139 18.3 101960 70
2004-06-07 06:56:12 51°13.644 2°55.938 2.9 153 18.3 101950 70
2004-06-07 06:56:17 51°13.648 2°55.927 3.8   18.3 101950 70
2004-06-07 06:56:22 51°13.651 2°55.916 2.7 134 18.4 101950 70
2004-06-07 06:56:27 51°13.655 2°55.905 2.4 185 18.4 101950 70
2004-06-07 06:56:31 51°13.658 2°55.896 2.9 167 18.3 101950 70
2004-06-07 06:56:36 51°13.661 2°55.885 2.4 168 18.3 101950 70
2004-06-07 06:56:42 51°13.665 2°55.871 1.9 190 18.3 101960 70
2004-06-07 06:56:47 51°13.667 2°55.86 2.9 170 18.3 101960 70
2004-06-07 06:56:52 51°13.67 2°55.848 3.5 149 18.4 101950 70
2004-06-07 06:56:57 51°13.672 2°55.836 3.5 147 18.4 101950 70
2004-06-07 06:57:02 51°13.674 2°55.824 4 146 18.4 101960 70
2004-06-07 06:57:07 51°13.676 2°55.813 3.8 142 18.4 101960 70
2004-06-07 06:57:11 51°13.677 2°55.804 3.8 145 18.4 101960 70
2004-06-07 06:57:16 51°13.678 2°55.794 4   18.4 101960 70
2004-06-07 06:57:22 51°13.679 2°55.783 3.7 137 18.4 101960 70
2004-06-07 06:57:26 51°13.68 2°55.777 3.2 140 18.4 101960 70
2004-06-07 06:57:31 51°13.68 2°55.771 3.1 129 18.4 101960 70
2004-06-07 06:57:36 51°13.68 2°55.766 3.3 129 18.4 101960 70
2004-06-07 06:57:41 51°13.68 2°55.762 3.2 131 18.4 101950 70
2004-06-07 06:57:46 51°13.68 2°55.76 2.9 133 18.4 101950 70
2004-06-07 06:57:51 51°13.681 2°55.759 2.5 136 18.4 101960 70
2004-06-07 06:57:56 51°13.682 2°55.758 2.2 141 18.4 101960 70
2004-06-07 06:58:00 51°13.682 2°55.759 2.2 136 18.4 101960 70
2004-06-07 06:58:06 51°13.684 2°55.761 1.8 140 18.4 101960 70
2004-06-07 06:58:11 51°13.686 2°55.763 1.7 147 18.4 101950 70
2004-06-07 06:58:16 51°13.689 2°55.766 1.5   18.4 101950 70
2004-06-07 06:58:22 51°13.693 2°55.769 1 196 18.4 101950 70
2004-06-07 06:58:26 51°13.696 2°55.77 1.2 175 18.4 101950 70
2004-06-07 06:58:31 51°13.699 2°55.772 0.9 188 18.4 101960 71
2004-06-07 06:58:35 51°13.701 2°55.772 1.2 186 18.4 101960 71
2004-06-07 06:58:41 51°13.704 2°55.773 1.3 182 18.4 101960 71
2004-06-07 06:58:46 51°13.704 2°55.773 2.3 185 18.4 101960 71
2004-06-07 06:58:51 51°13.704 2°55.773 2.7 179 18.4 101960 71
2004-06-07 06:58:56 51°13.704 2°55.773 2.1 201 18.4 101960 71
2004-06-07 06:59:01 51°13.702 2°55.773 1.1 183 18.4 101960 71
2004-06-07 06:59:06 51°13.7 2°55.773 1.7 213 18.4 101960 71
2004-06-07 06:59:12 51°13.697 2°55.772 2.2 178 18.4 101960 71
2004-06-07 06:59:17 51°13.694 2°55.771 2 187 18.4 101960 71
2004-06-07 06:59:22 51°13.692 2°55.77 2.2 179 18.4 101960 71
2004-06-07 06:59:27 51°13.69 2°55.77 1.6 175 18.4 101960 71
2004-06-07 06:59:31 51°13.689 2°55.769 1.8 182 18.4 101960 71
2004-06-07 06:59:36 51°13.689 2°55.769 0.9 192 18.4 101960 71
2004-06-07 06:59:42 51°13.691 2°55.768 0.6 203 18.5 101960 71
2004-06-07 06:59:47 51°13.693 2°55.767 0.7 253 18.5 101960 71
2004-06-07 06:59:52 51°13.696 2°55.765 0.9 302 18.5 101960 71
2004-06-07 06:59:56 51°13.698 2°55.763 1.7 286 18.5 101960 71
2004-06-07 07:00:02 51°13.703 2°55.758 2.2 298 18.5 101960 71
2004-06-07 07:00:07 51°13.708 2°55.754 2.1 293 18.5 101960 71
2004-06-07 07:00:12 51°13.713 2°55.748 2 297 18.5 101960 71
2004-06-07 07:00:16 51°13.718 2°55.743 2.2 293 18.5 101960 71
2004-06-07 07:00:20 51°13.722 2°55.739 1.7 302 18.5 101960 71
2004-06-07 07:00:26 51°13.729 2°55.731 1.1 288 18.5 101960 71
2004-06-07 07:00:31 51°13.735 2°55.725 1.1 288 18.5 101960 71
2004-06-07 07:00:36 51°13.74 2°55.718 1 293 18.5 101960 71
2004-06-07 07:00:40 51°13.745 2°55.713 1 293 18.6 101960 71
2004-06-07 07:00:46 51°13.752 2°55.706 0.9 296 18.6 101960 71
2004-06-07 07:00:51 51°13.757 2°55.699 1.2 300 18.6 101960 71
2004-06-07 07:00:56 51°13.764 2°55.693 1 293 18.6 101960 71
2004-06-07 07:01:00 51°13.768 2°55.688 0.8 301 18.6 101960 70
2004-06-07 07:01:06 51°13.776 2°55.68 1 343 18.6 101960 70
2004-06-07 07:01:11 51°13.783 2°55.674 0.9 344 18.6 101960 70
2004-06-07 07:01:16 51°13.79 2°55.668 0.7 344 18.6 101960 70
2004-06-07 07:01:20 51°13.796 2°55.664 0.7 343 18.6 101960 70
2004-06-07 07:01:26 51°13.805 2°55.657 1.9 316 18.6 101960 70
2004-06-07 07:01:31 51°13.813 2°55.651 1.9 307 18.7 101960 70
2004-06-07 07:01:36 51°13.82 2°55.646 1.3 309 18.7 101960 70
2004-06-07 07:01:40 51°13.827 2°55.641 1.4 42 18.7 101960 70
2004-06-07 07:01:46 51°13.837 2°55.634 1.3 42 18.7 101960 70
2004-06-07 07:01:51 51°13.845 2°55.628 1.5 319 18.7 101960 70
2004-06-07 07:01:56 51°13.854 2°55.622 1.2 319 18.7 101960 70
2004-06-07 07:02:01 51°13.863 2°55.615 1.3 324 18.7 101960 70
2004-06-07 07:02:06 51°13.872 2°55.609 2 346 18.7 101960 70
2004-06-07 07:02:11 51°13.881 2°55.602 2.1 334 18.8 101960 70
2004-06-07 07:02:16 51°13.89 2°55.596 1.8 343 18.8 101960 70
2004-06-07 07:02:21 51°13.899 2°55.59 1.9 6 18.8 101960 70
2004-06-07 07:02:26 51°13.909 2°55.583 2.2 15 18.8 101960 70
2004-06-07 07:02:31 51°13.918 2°55.577 2.3 9 18.8 101960 70
2004-06-07 07:02:36 51°13.928 2°55.57 2 16 18.8 101960 70
2004-06-07 07:02:41 51°13.938 2°55.564 2.1 6 18.8 101960 69
2004-06-07 07:02:46 51°13.947 2°55.558 2.4 352 18.8 101960 69
2004-06-07 07:02:51 51°13.957 2°55.551 1.6 335 18.8 101960 69
2004-06-07 07:02:56 51°13.967 2°55.545 1.7 352 18.8 101960 69
2004-06-07 07:03:01 51°13.977 2°55.538 1.9 3 18.8 101960 69
2004-06-07 07:03:05 51°13.985 2°55.533 2.8 340 18.8 101960 69
2004-06-07 07:03:10 51°13.995 2°55.526 2.9 349 18.8 101960 69
2004-06-07 07:03:15 51°14.005 2°55.519 2.6 338 18.8 101960 69
2004-06-07 07:03:21 51°14.017 2°55.51 2.7 336 18.9 101960 69
2004-06-07 07:03:26 51°14.027 2°55.503 2.3 337 18.9 101960 69
2004-06-07 07:03:31 51°14.037 2°55.496 1.6 339 18.9 101960 68
2004-06-07 07:03:36 51°14.047 2°55.489 2.1 8 18.9 101960 68
2004-06-07 07:03:41 51°14.057 2°55.482 2.2 5 18.9 101960 68
2004-06-07 07:03:46 51°14.067 2°55.474 2.2 9 18.9 101960 68
2004-06-07 07:03:51 51°14.078 2°55.466 2.6 349 18.9 101960 68
2004-06-07 07:03:56 51°14.088 2°55.458 2.6 335 18.9 101960 68
2004-06-07 07:04:00 51°14.097 2°55.452 2.7 343 18.9 101960 68
2004-06-07 07:04:06 51°14.11 2°55.442 2.5 350 18.9 101960 68
2004-06-07 07:04:11 51°14.122 2°55.433 2.1 353 18.9 101960 68
2004-06-07 07:04:16 51°14.133 2°55.424 2.5 344 18.9 101960 68
2004-06-07 07:04:21 51°14.144 2°55.414 2.8 352 18.9 101960 68
2004-06-07 07:04:26 51°14.155 2°55.404 2.9 347 18.9 101960 68
2004-06-07 07:04:31 51°14.167 2°55.394 2.6 352 18.9 101960 68
2004-06-07 07:04:36 51°14.178 2°55.382 3.2 353 18.9 101960 68
2004-06-07 07:04:41 51°14.19 2°55.37 3.2 351 18.9 101960 68
2004-06-07 07:04:46 51°14.201 2°55.358 3.2 353 18.9 101960 68
2004-06-07 07:04:51 51°14.212 2°55.344 3.5 344 19 101960 68
2004-06-07 07:04:56 51°14.223 2°55.33 3.9 342 19 101960 68
2004-06-07 07:05:01 51°14.234 2°55.316 3.6 343 19 101960 68
2004-06-07 07:05:07 51°14.247 2°55.296 4 356 19 101960 68
2004-06-07 07:05:11 51°14.255 2°55.283 4 346 19 101960 68
2004-06-07 07:05:16 51°14.265 2°55.266 3.8 348 19 101960 68
2004-06-07 07:05:19 51°14.271 2°55.256 3.6 347 19 101960 68
2004-06-07 07:05:26 51°14.284 2°55.23 4.6 350 19 101960 68
2004-06-07 07:05:31 51°14.294 2°55.211 5.5 343 19 101960 68
2004-06-07 07:05:36 51°14.304 2°55.192 6.4 347 19 101960 68
2004-06-07 07:05:41 51°14.314 2°55.172 6.1 341 19 101960 68
2004-06-07 07:05:46 51°14.324 2°55.153 5 342 19 101960 68
2004-06-07 07:05:51 51°14.335 2°55.132 5.1 344 19 101960 68
2004-06-07 07:05:56 51°14.345 2°55.112 4.4 334 19 101960 68
2004-06-07 07:06:00 51°14.353 2°55.095 5 336 19 101950 68
2004-06-07 07:06:06 51°14.367 2°55.069 5.9 348 19 101950 68
2004-06-07 07:06:11 51°14.378 2°55.048 5.7 343 19 101960 67
2004-06-07 07:06:16 51°14.39 2°55.027 5.5 340 19 101960 67
2004-06-07 07:06:22 51°14.404 2°55.001 5.3 335 19 101950 67
2004-06-07 07:06:26 51°14.414 2°54.983 5.8 339 19 101950 67
2004-06-07 07:06:31 51°14.426 2°54.961 6.5 346 19 101950 67
2004-06-07 07:06:36 51°14.439 2°54.939 7 338 19 101950 67
2004-06-07 07:06:40 51°14.448 2°54.921 6.5 335 19.1 101950 66
2004-06-07 07:06:46 51°14.463 2°54.894 6.1 337 19.1 101950 66
2004-06-07 07:06:51 51°14.475 2°54.872 6.8 328 19.1 101950 66
2004-06-07 07:06:56 51°14.487 2°54.849 6.2 331 19.1 101950 66
2004-06-07 07:07:00 51°14.497 2°54.831 6.8 323 19.1 101950 66
2004-06-07 07:07:06 51°14.513 2°54.805 6.1 322 19.1 101950 66
2004-06-07 07:07:11 51°14.526 2°54.784 5.8 318 19.1 101950 66
2004-06-07 07:07:16 51°14.539 2°54.763 5.9 319 19.1 101950 66
2004-06-07 07:07:21 51°14.552 2°54.742 6.1 322 19.1 101950 66
2004-06-07 07:07:24 51°14.56 2°54.729 6.2 328 19.1 101950 66
2004-06-07 07:07:31 51°14.579 2°54.7 5.9 337 19.2 101950 66
2004-06-07 07:07:36 51°14.592 2°54.68 6.2 335 19.2 101950 66
2004-06-07 07:07:41 51°14.606 2°54.66 6.8 341 19.1 101950 66
2004-06-07 07:07:46 51°14.62 2°54.64 6.1 338 19.1 101950 66
2004-06-07 07:07:51 51°14.634 2°54.621 6.3 336 19.2 101960 66
2004-06-07 07:07:56 51°14.648 2°54.601 6.3 338 19.2 101960 66
2004-06-07 07:07:59 51°14.656 2°54.59 6.7 339 19.2 101960 67
2004-06-07 07:08:06 51°14.676 2°54.563 6.2 338 19.2 101960 67
2004-06-07 07:08:11 51°14.69 2°54.544 6.7 340 19.1 101960 67
2004-06-07 07:08:16 51°14.704 2°54.524 6.7 337 19.1 101960 67
2004-06-07 07:08:20 51°14.715 2°54.509 7 342 19.1 101960 67
2004-06-07 07:08:26 51°14.731 2°54.485 6.1 334 19.1 101960 67
2004-06-07 07:08:31 51°14.745 2°54.465 6 337 19.1 101960 67
2004-06-07 07:08:36 51°14.759 2°54.446 6.3 338 19.1 101960 67
2004-06-07 07:08:40 51°14.77 2°54.43 5.8 334 19.1 101960 68
2004-06-07 07:08:46 51°14.787 2°54.407 6 337 19.1 101960 68
2004-06-07 07:08:51 51°14.8 2°54.387 6.3 334 19.1 101960 68
2004-06-07 07:08:56 51°14.814 2°54.367 6.3 338 19.1 101960 68
2004-06-07 07:09:00 51°14.825 2°54.352 5.8 335 19.1 101960 68
2004-06-07 07:09:06 51°14.842 2°54.329 5.7 336 19.1 101960 68
2004-06-07 07:09:11 51°14.856 2°54.31 5.8 336 19 101960 68
2004-06-07 07:09:16 51°14.871 2°54.292 5.6 337 19 101960 68
2004-06-07 07:09:20 51°14.882 2°54.277 5.8 336 19 101960 68
2004-06-07 07:09:26 51°14.899 2°54.255 6.2 339 19 101960 68
2004-06-07 07:09:31 51°14.913 2°54.236 6 339 19 101960 68
2004-06-07 07:09:36 51°14.927 2°54.217 6.1 338 19 101960 68
2004-06-07 07:09:40 51°14.938 2°54.201 6 338 19 101960 69
2004-06-07 07:09:46 51°14.954 2°54.177 6.1 338 19 101960 69
2004-06-07 07:09:51 51°14.968 2°54.157 5.9 340 18.9 101960 69
2004-06-07 07:09:56 51°14.981 2°54.137 6.2 340 18.9 101960 69
2004-06-07 07:10:00 51°14.992 2°54.121 6.3 344 18.9 101960 69
2004-06-07 07:10:06 51°15.008 2°54.097 6.5 343 18.9 101960 69
2004-06-07 07:10:11 51°15.021 2°54.076 6.6 341 18.9 101960 70
2004-06-07 07:10:16 51°15.035 2°54.056 6.2 343 18.9 101960 70
2004-06-07 07:10:21 51°15.048 2°54.035 6.1 342 18.9 101960 70
2004-06-07 07:10:26 51°15.061 2°54.015 6.8 348 18.9 101960 70
2004-06-07 07:10:31 51°15.075 2°53.994 6.4 346 18.9 101960 70
2004-06-07 07:10:36 51°15.089 2°53.974 6.6 345 18.9 101960 70
2004-06-07 07:10:41 51°15.103 2°53.954 6.3 347 18.9 101960 71
2004-06-07 07:10:46 51°15.117 2°53.934 6.7 344 18.9 101960 71
2004-06-07 07:10:51 51°15.13 2°53.913 6.7 344 18.8 101960 71
2004-06-07 07:10:56 51°15.144 2°53.893 6.3 343 18.8 101960 71
2004-06-07 07:11:01 51°15.157 2°53.871 6.7 343 18.8 101960 71
2004-06-07 07:11:06 51°15.169 2°53.849 6.4 343 18.8 101960 71
2004-06-07 07:11:11 51°15.182 2°53.827 6.2 343 18.8 101960 72
2004-06-07 07:11:16 51°15.194 2°53.805 6.5 340 18.8 101960 72
2004-06-07 07:11:20 51°15.204 2°53.787 6.4 342 18.8 101960 72
2004-06-07 07:11:26 51°15.218 2°53.76 6.5 341 18.8 101960 72
2004-06-07 07:11:31 51°15.231 2°53.737 6.5 341 18.7 101960 72
2004-06-07 07:11:36 51°15.243 2°53.715 6.3 342 18.7 101960 72
2004-06-07 07:11:40 51°15.253 2°53.697 6.6 339 18.7 101960 72
2004-06-07 07:11:46 51°15.268 2°53.671 6.5 344 18.7 101960 72
2004-06-07 07:11:51 51°15.281 2°53.649 6.1 339 18.7 101960 72
2004-06-07 07:11:56 51°15.294 2°53.628 6.6 342 18.7 101960 72
2004-06-07 07:12:00 51°15.305 2°53.611 6.6 343 18.6 101960 72
2004-06-07 07:12:06 51°15.32 2°53.585 6.9 346 18.6 101960 72
2004-06-07 07:12:11 51°15.333 2°53.563 6.7 346 18.6 101960 72
2004-06-07 07:12:16 51°15.346 2°53.541 6.9 346 18.6 101960 72
2004-06-07 07:12:19 51°15.353 2°53.528 6.8 350 18.6 101960 73
2004-06-07 07:12:26 51°15.371 2°53.498 7.1 348 18.6 101960 73
2004-06-07 07:12:31 51°15.384 2°53.476 6.5 343 18.6 101960 73
2004-06-07 07:12:36 51°15.397 2°53.455 6.5 343 18.6 101960 73
2004-06-07 07:12:41 51°15.41 2°53.434 7.4 348 18.5 101960 73
2004-06-07 07:12:46 51°15.423 2°53.413 7 346 18.5 101960 73
2004-06-07 07:12:51 51°15.437 2°53.392 6.8 348 18.5 101960 74
2004-06-07 07:12:56 51°15.45 2°53.371 6.7 346 18.5 101960 74
2004-06-07 07:13:01 51°15.463 2°53.35 7.2 347 18.5 101960 74
2004-06-07 07:13:06 51°15.476 2°53.329 7.3 344 18.5 101960 74
2004-06-07 07:13:11 51°15.489 2°53.307 6.7 343 18.5 101960 74
2004-06-07 07:13:16 51°15.501 2°53.285 7.1 338 18.5 101960 74
2004-06-07 07:13:21 51°15.513 2°53.262 6.9 337 18.5 101960 74
2004-06-07 07:13:26 51°15.524 2°53.24 7.2 335 18.5 101960 74
2004-06-07 07:13:31 51°15.536 2°53.217 7.2 333 18.4 101960 74
2004-06-07 07:13:36 51°15.548 2°53.194 6.8 333 18.4 101960 74
2004-06-07 07:13:41 51°15.559 2°53.171 6.7 333 18.4 101960 74
2004-06-07 07:13:46 51°15.571 2°53.148 6.9 332 18.4 101960 74
2004-06-07 07:13:51 51°15.582 2°53.124 6.7 333 18.4 101950 74
2004-06-07 07:13:56 51°15.594 2°53.102 6.3 332 18.4 101950 74
2004-06-07 07:14:01 51°15.606 2°53.079 6.2 332 18.3 101950 74
2004-06-07 07:14:06 51°15.617 2°53.055 6.6 332 18.3 101950 74
2004-06-07 07:14:11 51°15.629 2°53.032 6.3 333 18.3 101960 74
2004-06-07 07:14:16 51°15.64 2°53.009 6.4 331 18.3 101960 74
2004-06-07 07:14:21 51°15.65 2°52.984 6.4 335 18.3 101960 74
2004-06-07 07:14:26 51°15.66 2°52.959 7 335 18.3 101960 74
2004-06-07 07:14:31 51°15.669 2°52.933 7.4 336 18.3 101960 74
2004-06-07 07:14:36 51°15.678 2°52.907 7 335 18.3 101960 74
2004-06-07 07:14:41 51°15.685 2°52.88 7.5 335 18.3 101950 74
2004-06-07 07:14:46 51°15.692 2°52.852 7.4 339 18.3 101950 74
2004-06-07 07:14:51 51°15.699 2°52.825 6.9 341 18.2 101950 74
2004-06-07 07:14:56 51°15.705 2°52.797 8.1 347 18.2 101950 74
2004-06-07 07:15:01 51°15.711 2°52.769 7.9 342 18.2 101950 74
2004-06-07 07:15:06 51°15.716 2°52.74 7.8 346 18.2 101950 74
2004-06-07 07:15:11 51°15.721 2°52.711 8 346 18.2 101950 74
2004-06-07 07:15:16 51°15.725 2°52.682 8.1 344 18.2 101950 74
2004-06-07 07:15:21 51°15.729 2°52.653 8.3 344 18.2 101950 74
2004-06-07 07:15:24 51°15.731 2°52.635 8.4 345 18.2 101950 74
2004-06-07 07:15:31 51°15.736 2°52.594 8.3 339 18.2 101950 75
2004-06-07 07:15:36 51°15.739 2°52.565 7.7 341 18.2 101950 75
2004-06-07 07:15:40 51°15.742 2°52.541 8.2 340 18.2 101950 75
2004-06-07 07:15:45 51°15.746 2°52.512 8 340 18.2 101950 75
2004-06-07 07:15:51 51°15.75 2°52.476 8.2 340 18.1 101950 75
2004-06-07 07:15:56 51°15.754 2°52.446 7.7 340 18.1 101950 75
2004-06-07 07:16:01 51°15.757 2°52.417 8.2 341 18.1 101950 75
2004-06-07 07:16:06 51°15.759 2°52.387 8.6 345 18.1 101950 75
2004-06-07 07:16:11 51°15.76 2°52.357 8.4 344 18.1 101950 75
2004-06-07 07:16:16 51°15.76 2°52.328 8.4 342 18.1 101950 75
2004-06-07 07:16:21 51°15.759 2°52.298 8.7 344 18.1 101950 75
2004-06-07 07:16:27 51°15.757 2°52.262 8.8 347 18.1 101950 75
2004-06-07 07:16:31 51°15.756 2°52.238 8.3 345 18.1 101950 76
2004-06-07 07:16:37 51°15.753 2°52.202 9 350 18.1 101950 76
2004-06-07 07:16:42 51°15.751 2°52.172 8.8 348 18 101950 76
2004-06-07 07:16:47 51°15.748 2°52.143 8.1 350 18 101950 76
2004-06-07 07:16:52 51°15.745 2°52.113 8.1 348 18 101950 76
2004-06-07 07:16:57 51°15.742 2°52.083 7.9 349 18 101950 76
2004-06-07 07:16:59 51°15.741 2°52.071 8.9 346 18 101950 76
2004-06-07 07:17:07 51°15.737 2°52.023 7.8 351 18 101950 76
2004-06-07 07:17:11 51°15.735 2°51.999 7.9 351 18 101950 76
2004-06-07 07:17:17 51°15.733 2°51.964 8.4 352 18 101950 76
2004-06-07 07:17:22 51°15.731 2°51.934 7.8 352 18 101950 76
2004-06-07 07:17:27 51°15.729 2°51.904 8 350 18 101950 76
2004-06-07 07:17:32 51°15.726 2°51.874 8.7 349 18 101950 77
2004-06-07 07:17:37 51°15.724 2°51.844 8.4 348 18 101950 77
2004-06-07 07:17:41 51°15.723 2°51.82 8 350 18 101950 77
2004-06-07 07:17:47 51°15.72 2°51.784 8.2 348 18 101950 77
2004-06-07 07:17:51 51°15.719 2°51.76 8 349 18 101950 77
2004-06-07 07:17:56 51°15.717 2°51.73 8.3 346 18 101950 77
2004-06-07 07:18:01 51°15.715 2°51.7 8.7 348 17.9 101950 77
2004-06-07 07:18:07 51°15.713 2°51.664 8.3 346 17.9 101950 77
2004-06-07 07:18:12 51°15.711 2°51.634 8.8 344 17.9 101950 77
2004-06-07 07:18:17 51°15.71 2°51.604 8.6 344 17.9 101950 77
2004-06-07 07:18:21 51°15.708 2°51.58 8.6 345 17.9 101950 77
2004-06-07 07:18:27 51°15.706 2°51.544 8.9 341 17.9 101950 77
2004-06-07 07:18:31 51°15.705 2°51.52 8.4 345 17.9 101950 78
2004-06-07 07:18:35 51°15.704 2°51.495 8.4 342 17.9 101950 78
2004-06-07 07:18:41 51°15.702 2°51.46 8.3 343 17.9 101950 78
2004-06-07 07:18:47 51°15.699 2°51.424 9 347 17.9 101950 78
2004-06-07 07:18:52 51°15.697 2°51.394 8.5 348 17.8 101950 78
2004-06-07 07:18:57 51°15.694 2°51.364 8.9 346 17.8 101950 78
2004-06-07 07:19:01 51°15.691 2°51.34 8.6 348 17.8 101950 78
2004-06-07 07:19:07 51°15.686 2°51.305 8.6 349 17.8 101950 78
2004-06-07 07:19:11 51°15.683 2°51.282 8.6 349 17.8 101950 78
2004-06-07 07:19:16 51°15.678 2°51.253 8.9 350 17.8 101950 78
2004-06-07 07:19:21 51°15.673 2°51.224 8.8 350 17.8 101940 78
2004-06-07 07:19:27 51°15.667 2°51.189 8.6 353 17.8 101940 78
2004-06-07 07:19:30 51°15.664 2°51.172 9 349 17.8 101950 78
2004-06-07 07:19:37 51°15.657 2°51.131 8.5 348 17.8 101950 78
2004-06-07 07:19:42 51°15.652 2°51.102 8.4 348 17.8 101950 78
2004-06-07 07:19:47 51°15.647 2°51.073 8.7 348 17.8 101950 78
2004-06-07 07:19:52 51°15.642 2°51.043 9.1 347 17.8 101950 78
2004-06-07 07:19:57 51°15.637 2°51.014 9.1 351 17.8 101950 78
2004-06-07 07:20:01 51°15.634 2°50.991 8.7 348 17.8 101950 78
2004-06-07 07:20:07 51°15.628 2°50.956 9.1 349 17.8 101950 78
2004-06-07 07:20:12 51°15.623 2°50.927 8.8 348 17.8 101950 78
2004-06-07 07:20:15 51°15.62 2°50.91 8.3 348 17.8 101950 78
2004-06-07 07:20:21 51°15.615 2°50.874 8.2 348 17.8 101950 78
2004-06-07 07:20:27 51°15.609 2°50.839 8.5 347 17.8 101950 78
2004-06-07 07:20:31 51°15.605 2°50.816 8.8 348 17.8 101950 78
2004-06-07 07:20:37 51°15.6 2°50.781 8.3 347 17.8 101950 78
2004-06-07 07:20:42 51°15.595 2°50.752 8.1 348 17.8 101950 78
2004-06-07 07:20:47 51°15.59 2°50.723 8.6 348 17.8 101950 78
2004-06-07 07:20:52 51°15.585 2°50.694 8.9 347 17.8 101950 79
2004-06-07 07:20:57 51°15.58 2°50.664 8.5 348 17.8 101950 79
2004-06-07 07:21:01 51°15.577 2°50.641 9.1 345 17.8 101950 79
2004-06-07 07:21:07 51°15.57 2°50.606 9.3 348 17.8 101950 79
2004-06-07 07:21:11 51°15.567 2°50.583 9.2 348 17.8 101950 79
2004-06-07 07:21:17 51°15.561 2°50.548 9.1 348 17.8 101950 79
2004-06-07 07:21:23 51°15.556 2°50.513 9.2 348 17.8 101950 79
2004-06-07 07:21:27 51°15.552 2°50.489 8.3 349 17.8 101950 79
2004-06-07 07:21:32 51°15.547 2°50.46 8.8 351 17.8 101950 79
2004-06-07 07:21:37 51°15.543 2°50.43 8.4 348 17.8 101950 79
2004-06-07 07:21:41 51°15.539 2°50.407 9 348 17.8 101950 79
2004-06-07 07:21:47 51°15.533 2°50.372 8.9 349 17.8 101950 79
2004-06-07 07:21:51 51°15.53 2°50.349 9.1 347 17.7 101950 79
2004-06-07 07:21:57 51°15.524 2°50.313 9.1 349 17.7 101950 79
2004-06-07 07:22:02 51°15.519 2°50.284 8.7 348 17.7 101950 79
2004-06-07 07:22:07 51°15.515 2°50.255 8.4 348 17.7 101950 79
2004-06-07 07:22:12 51°15.511 2°50.225 8.5 347 17.7 101950 79
2004-06-07 07:22:17 51°15.507 2°50.195 8.7 347 17.7 101950 79
2004-06-07 07:22:22 51°15.504 2°50.166 8.4 346 17.7 101950 79
2004-06-07 07:22:27 51°15.5 2°50.136 8.7 346 17.7 101950 79
2004-06-07 07:22:31 51°15.497 2°50.112 8 349 17.7 101950 79
2004-06-07 07:22:37 51°15.493 2°50.077 8.1 348 17.7 101950 79
2004-06-07 07:22:39 51°15.491 2°50.065 8.8 346 17.7 101950 79
2004-06-07 07:22:47 51°15.485 2°50.018 8.8 347 17.7 101950 79
2004-06-07 07:22:51 51°15.482 2°49.994 8.1 349 17.7 101950 79
2004-06-07 07:22:57 51°15.477 2°49.958 8.6 348 17.7 101950 79
2004-06-07 07:23:02 51°15.474 2°49.929 8.7 349 17.7 101950 79
2004-06-07 07:23:07 51°15.47 2°49.899 8.6 349 17.7 101950 79
2004-06-07 07:23:12 51°15.466 2°49.869 8 352 17.7 101950 79
2004-06-07 07:23:17 51°15.462 2°49.839 8.1 348 17.7 101950 79
2004-06-07 07:23:21 51°15.459 2°49.816 8.2 349 17.7 101950 79
2004-06-07 07:23:27 51°15.455 2°49.78 8 351 17.7 101950 79
2004-06-07 07:23:31 51°15.452 2°49.757 7.8 352 17.7 101950 79
2004-06-07 07:23:37 51°15.447 2°49.721 7.6 352 17.7 101950 79
2004-06-07 07:23:41 51°15.444 2°49.697 7.9 351 17.7 101950 79
2004-06-07 07:23:47 51°15.439 2°49.662 8.2 352 17.7 101950 79
2004-06-07 07:23:51 51°15.436 2°49.638 7.7 353 17.7 101950 79
2004-06-07 07:23:57 51°15.432 2°49.602 8.1 352 17.7 101950 79
2004-06-07 07:24:02 51°15.428 2°49.572 8.3 351 17.7 101960 79
2004-06-07 07:24:07 51°15.425 2°49.542 8.4 353 17.7 101960 79
2004-06-07 07:24:12 51°15.421 2°49.513 7.7 353 17.7 101960 79
2004-06-07 07:24:17 51°15.417 2°49.483 8.6 351 17.7 101960 79
2004-06-07 07:24:22 51°15.413 2°49.453 8.5 349 17.7 101960 79
2004-06-07 07:24:27 51°15.409 2°49.424 8.7 350 17.7 101960 79
2004-06-07 07:24:31 51°15.406 2°49.4 8.4 350 17.7 101950 79
2004-06-07 07:24:37 51°15.402 2°49.364 8.8 352 17.7 101950 79
2004-06-07 07:24:42 51°15.398 2°49.335 8.1 349 17.7 101960 79
2004-06-07 07:24:47 51°15.395 2°49.305 8.9 350 17.7 101960 79
2004-06-07 07:24:51 51°15.392 2°49.281 8.3 350 17.7 101950 79
2004-06-07 07:24:57 51°15.387 2°49.245 8.9 351 17.7 101950 79
2004-06-07 07:25:02 51°15.383 2°49.216 8.7 349 17.7 101960 79
2004-06-07 07:25:07 51°15.38 2°49.186 8.7 349 17.7 101960 79
2004-06-07 07:25:11 51°15.377 2°49.162 8.3 347 17.7 101960 79
2004-06-07 07:25:17 51°15.372 2°49.127 8.8 349 17.7 101960 79
2004-06-07 07:25:21 51°15.369 2°49.103 8.9 347 17.6 101950 79
2004-06-07 07:25:27 51°15.364 2°49.068 8.6 349 17.6 101950 79
2004-06-07 07:25:31 51°15.361 2°49.044 9.2 346 17.7 101950 79
2004-06-07 07:25:36 51°15.357 2°49.014 9.2 348 17.7 101950 79
2004-06-07 07:25:40 51°15.354 2°48.99 8.7 346 17.6 101950 79
2004-06-07 07:25:47 51°15.349 2°48.948 9 347 17.6 101950 79
2004-06-07 07:25:52 51°15.345 2°48.919 8.9 346 17.6 101950 79
2004-06-07 07:25:57 51°15.341 2°48.889 9.2 346 17.6 101950 79
2004-06-07 07:26:01 51°15.338 2°48.865 9 346 17.6 101950 79
2004-06-07 07:26:07 51°15.334 2°48.829 9 347 17.6 101950 79
2004-06-07 07:26:12 51°15.33 2°48.799 9 344 17.6 101950 79
2004-06-07 07:26:17 51°15.326 2°48.77 9 345 17.6 101950 79
2004-06-07 07:26:21 51°15.323 2°48.746 9 343 17.6 101950 79
2004-06-07 07:26:27 51°15.318 2°48.71 8.5 345 17.6 101950 79
2004-06-07 07:26:31 51°15.315 2°48.686 8.6 345 17.6 101950 79
2004-06-07 07:26:37 51°15.31 2°48.651 8.9 343 17.6 101950 79
2004-06-07 07:26:42 51°15.306 2°48.621 9 344 17.6 101950 79
2004-06-07 07:26:47 51°15.302 2°48.591 9.1 344 17.6 101950 79
2004-06-07 07:26:51 51°15.298 2°48.567 8.8 344 17.6 101950 79
2004-06-07 07:26:57 51°15.294 2°48.531 9 346 17.6 101950 79
2004-06-07 07:27:02 51°15.29 2°48.502 8.4 344 17.6 101950 79
2004-06-07 07:27:07 51°15.286 2°48.472 8.4 344 17.6 101950 79
2004-06-07 07:27:11 51°15.283 2°48.448 8.8 346 17.6 101960 79
2004-06-07 07:27:17 51°15.278 2°48.412 8.7 345 17.6 101960 79
2004-06-07 07:27:21 51°15.275 2°48.388 8.4 346 17.6 101950 79
2004-06-07 07:27:27 51°15.27 2°48.352 8.6 345 17.6 101950 79
2004-06-07 07:27:32 51°15.266 2°48.323 8.4 346 17.6 101950 79
2004-06-07 07:27:37 51°15.262 2°48.293 8.8 345 17.6 101950 79
2004-06-07 07:27:42 51°15.258 2°48.263 8.3 346 17.6 101960 79
2004-06-07 07:27:47 51°15.254 2°48.233 8.4 345 17.6 101960 79
2004-06-07 07:27:51 51°15.251 2°48.209 8.3 348 17.6 101960 80
2004-06-07 07:27:57 51°15.246 2°48.174 8.8 346 17.6 101960 80
2004-06-07 07:28:01 51°15.243 2°48.15 8.8 347 17.6 101960 80
2004-06-07 07:28:07 51°15.238 2°48.114 8.5 348 17.6 101960 80
2004-06-07 07:28:11 51°15.235 2°48.09 8.3 350 17.6 101960 80
2004-06-07 07:28:17 51°15.231 2°48.054 8.6 349 17.6 101960 80
2004-06-07 07:28:21 51°15.227 2°48.031 7.9 350 17.6 101960 80
2004-06-07 07:28:27 51°15.222 2°47.995 8.6 351 17.6 101960 80
2004-06-07 07:28:31 51°15.219 2°47.971 7.7 352 17.6 101960 80
2004-06-07 07:28:37 51°15.214 2°47.936 8.5 352 17.6 101960 80
2004-06-07 07:28:41 51°15.212 2°47.912 8.1 350 17.6 101960 80
2004-06-07 07:28:47 51°15.207 2°47.876 8.4 350 17.6 101960 80
2004-06-07 07:28:52 51°15.203 2°47.846 8.7 350 17.6 101960 80
2004-06-07 07:28:55 51°15.201 2°47.828 7.9 350 17.6 101960 80
2004-06-07 07:29:00 51°15.197 2°47.799 8.1 349 17.5 101960 80
2004-06-07 07:29:07 51°15.191 2°47.757 8.1 348 17.5 101960 80
2004-06-07 07:29:11 51°15.188 2°47.733 8.6 349 17.6 101960 80
2004-06-07 07:29:17 51°15.184 2°47.698 8.3 349 17.6 101960 80
2004-06-07 07:29:22 51°15.18 2°47.668 8 349 17.6 101960 80
2004-06-07 07:29:27 51°15.177 2°47.638 8.4 349 17.6 101960 80
2004-06-07 07:29:31 51°15.174 2°47.614 8.1 348 17.6 101960 80
2004-06-07 07:29:37 51°15.169 2°47.578 8.1 349 17.6 101960 80
2004-06-07 07:29:41 51°15.166 2°47.554 8 348 17.6 101960 80
2004-06-07 07:29:47 51°15.162 2°47.518 8.6 349 17.6 101960 80
2004-06-07 07:29:51 51°15.158 2°47.495 8.6 347 17.6 101960 80
2004-06-07 07:29:57 51°15.154 2°47.459 8.2 348 17.6 101960 80
2004-06-07 07:30:02 51°15.149 2°47.429 8.1 348 17.5 101960 80
2004-06-07 07:30:07 51°15.145 2°47.399 8.6 347 17.5 101960 80
2004-06-07 07:30:12 51°15.141 2°47.37 8.5 347 17.5 101960 80
2004-06-07 07:30:16 51°15.138 2°47.346 8 347 17.5 101960 80
2004-06-07 07:30:21 51°15.134 2°47.316 8.6 348 17.5 101960 80
2004-06-07 07:30:27 51°15.13 2°47.28 8.5 348 17.5 101960 80
2004-06-07 07:30:32 51°15.126 2°47.25 8.3 347 17.5 101960 80
2004-06-07 07:30:37 51°15.122 2°47.22 8.5 347 17.5 101960 80
2004-06-07 07:30:41 51°15.119 2°47.195 8 348 17.5 101960 80
2004-06-07 07:30:47 51°15.115 2°47.159 8.1 347 17.5 101960 80
2004-06-07 07:30:52 51°15.111 2°47.129 8.5 348 17.5 101960 80
2004-06-07 07:30:57 51°15.108 2°47.099 8.4 349 17.5 101960 80
2004-06-07 07:31:01 51°15.105 2°47.075 7.9 348 17.5 101960 80
2004-06-07 07:31:07 51°15.1 2°47.039 7.9 350 17.5 101960 80
2004-06-07 07:31:11 51°15.096 2°47.015 8.4 348 17.5 101960 80
2004-06-07 07:31:17 51°15.091 2°46.979 8.3 352 17.5 101960 80
2004-06-07 07:31:22 51°15.087 2°46.949 8.3 352 17.5 101960 80
2004-06-07 07:31:27 51°15.082 2°46.919 8.4 352 17.5 101960 80
2004-06-07 07:31:31 51°15.078 2°46.895 8.3 352 17.5 101960 80
2004-06-07 07:31:37 51°15.073 2°46.859 8.5 351 17.5 101960 80
2004-06-07 07:31:42 51°15.069 2°46.829 8.2 353 17.5 101960 80
2004-06-07 07:31:47 51°15.065 2°46.799 7.9 352 17.5 101960 80
2004-06-07 07:31:51 51°15.061 2°46.775 7.9 352 17.5 101960 80
2004-06-07 07:31:57 51°15.056 2°46.738 8.1 352 17.5 101960 80
2004-06-07 07:32:01 51°15.053 2°46.714 8.3 352 17.5 101960 80
2004-06-07 07:32:07 51°15.048 2°46.678 8.4 353 17.5 101960 80
2004-06-07 07:32:11 51°15.044 2°46.654 8.3 352 17.5 101960 80
2004-06-07 07:32:16 51°15.04 2°46.624 7.8 352 17.5 101960 80
2004-06-07 07:32:20 51°15.037 2°46.6 7.9 354 17.5 101960 80
2004-06-07 07:32:27 51°15.031 2°46.558 8.4 353 17.5 101960 80
2004-06-07 07:32:31 51°15.027 2°46.533 8 353 17.5 101960 80
2004-06-07 07:32:37 51°15.022 2°46.497 8 353 17.5 101960 80
2004-06-07 07:32:42 51°15.018 2°46.467 8.7 353 17.5 101960 80
2004-06-07 07:32:47 51°15.014 2°46.437 8.3 353 17.5 101960 80
2004-06-07 07:32:51 51°15.01 2°46.413 8.5 353 17.5 101960 80
2004-06-07 07:32:57 51°15.005 2°46.377 8 353 17.5 101960 80
2004-06-07 07:33:01 51°15.001 2°46.353 8 354 17.5 101960 80
2004-06-07 07:33:07 51°14.997 2°46.317 8.6 352 17.5 101960 80
2004-06-07 07:33:12 51°14.992 2°46.287 7.9 354 17.5 101960 80
2004-06-07 07:33:17 51°14.988 2°46.256 8 354 17.5 101960 80
2004-06-07 07:33:22 51°14.983 2°46.226 8.2 353 17.5 101960 80
2004-06-07 07:33:27 51°14.979 2°46.196 7.8 356 17.5 101960 80
2004-06-07 07:33:31 51°14.976 2°46.172 7.9 354 17.4 101960 80
2004-06-07 07:33:37 51°14.97 2°46.136 8 354 17.4 101960 80
2004-06-07 07:33:41 51°14.967 2°46.112 8 355 17.4 101960 80
2004-06-07 07:33:47 51°14.962 2°46.076 8.1 355 17.4 101960 80
2004-06-07 07:33:52 51°14.957 2°46.045 8.3 356 17.4 101960 80
2004-06-07 07:33:55 51°14.955 2°46.027 7.8 356 17.4 101960 80
2004-06-07 07:34:01 51°14.949 2°45.991 8.1 355 17.4 101960 80
2004-06-07 07:34:07 51°14.944 2°45.955 8.2 354 17.4 101960 80
2004-06-07 07:34:12 51°14.94 2°45.925 8.4 355 17.4 101970 80
2004-06-07 07:34:17 51°14.936 2°45.895 7.8 353 17.4 101970 80
2004-06-07 07:34:22 51°14.931 2°45.865 8.1 354 17.4 101960 80
2004-06-07 07:34:27 51°14.927 2°45.835 8.1 352 17.4 101960 80
2004-06-07 07:34:32 51°14.922 2°45.805 7.7 355 17.4 101970 80
2004-06-07 07:34:35 51°14.92 2°45.787 8.1 353 17.4 101970 80
2004-06-07 07:34:41 51°14.914 2°45.751 8 354 17.4 101970 80
2004-06-07 07:34:47 51°14.908 2°45.715 8 354 17.4 101970 80
2004-06-07 07:34:51 51°14.905 2°45.691 7.8 352 17.4 101970 80
2004-06-07 07:34:57 51°14.899 2°45.655 8.3 353 17.4 101970 80
2004-06-07 07:34:59 51°14.897 2°45.643 8.3 351 17.3 101970 80
2004-06-07 07:35:07 51°14.89 2°45.595 7.9 352 17.3 101970 80
2004-06-07 07:35:12 51°14.886 2°45.565 8.4 353 17.4 101970 80
2004-06-07 07:35:16 51°14.883 2°45.541 7.5 352 17.4 101970 80
2004-06-07 07:35:21 51°14.878 2°45.511 8.1 353 17.3 101960 81
2004-06-07 07:35:27 51°14.873 2°45.474 8 352 17.3 101960 81
2004-06-07 07:35:32 51°14.868 2°45.444 7.7 353 17.3 101970 81
2004-06-07 07:35:37 51°14.864 2°45.414 8 353 17.3 101970 81
2004-06-07 07:35:42 51°14.859 2°45.384 7.6 354 17.3 101960 81
2004-06-07 07:35:47 51°14.855 2°45.354 8 354 17.3 101960 81
2004-06-07 07:35:52 51°14.85 2°45.324 7.6 354 17.3 101960 81
2004-06-07 07:35:57 51°14.846 2°45.294 7.6 354 17.3 101960 81
2004-06-07 07:36:02 51°14.842 2°45.263 7.5 353 17.4 101970 81
2004-06-07 07:36:07 51°14.837 2°45.233 7.7 354 17.4 101970 81
2004-06-07 07:36:12 51°14.833 2°45.203 7.6 355 17.3 101970 81
2004-06-07 07:36:17 51°14.829 2°45.173 8 354 17.3 101970 81
2004-06-07 07:36:21 51°14.825 2°45.149 8.2 355 17.3 101970 81
2004-06-07 07:36:27 51°14.82 2°45.112 7.5 354 17.3 101970 81
2004-06-07 07:36:32 51°14.815 2°45.082 7.9 353 17.3 101960 81
2004-06-07 07:36:37 51°14.811 2°45.052 7.9 353 17.3 101960 81
2004-06-07 07:36:41 51°14.807 2°45.028 8.7 353 17.3 101970 81
2004-06-07 07:36:47 51°14.802 2°44.992 8.4 352 17.3 101970 81
2004-06-07 07:36:51 51°14.798 2°44.968 8.1 352 17.3 101970 81
2004-06-07 07:36:57 51°14.792 2°44.932 8.2 352 17.3 101970 81
2004-06-07 07:37:02 51°14.788 2°44.902 8.5 350 17.3 101960 81
2004-06-07 07:37:07 51°14.783 2°44.872 8.1 351 17.3 101960 81
2004-06-07 07:37:11 51°14.779 2°44.847 8.2 351 17.3 101970 81
2004-06-07 07:37:17 51°14.774 2°44.811 8.5 349 17.3 101970 81
2004-06-07 07:37:22 51°14.769 2°44.781 7.8 350 17.3 101970 81
2004-06-07 07:37:27 51°14.764 2°44.751 8.2 349 17.3 101970 81
2004-06-07 07:37:31 51°14.761 2°44.727 8.2 349 17.3 101970 81
2004-06-07 07:37:37 51°14.755 2°44.691 8.5 352 17.3 101970 81
2004-06-07 07:37:41 51°14.751 2°44.666 7.8 351 17.3 101970 81
2004-06-07 07:37:47 51°14.746 2°44.63 8.7 350 17.3 101970 81
2004-06-07 07:37:52 51°14.741 2°44.6 8.8 348 17.3 101970 81
2004-06-07 07:37:57 51°14.736 2°44.57 8.2 349 17.3 101970 81
2004-06-07 07:38:02 51°14.731 2°44.539 9 349 17.3 101960 81
2004-06-07 07:38:07 51°14.726 2°44.509 8.4 350 17.3 101960 81
2004-06-07 07:38:12 51°14.721 2°44.479 8.8 348 17.3 101970 81
2004-06-07 07:38:17 51°14.717 2°44.448 8.2 349 17.3 101970 81
2004-06-07 07:38:22 51°14.712 2°44.418 8.4 349 17.4 101960 81
2004-06-07 07:38:27 51°14.708 2°44.387 8.9 348 17.4 101960 81
2004-06-07 07:38:32 51°14.703 2°44.357 8.8 349 17.4 101970 82
2004-06-07 07:38:37 51°14.698 2°44.327 8.6 350 17.4 101970 82
2004-06-07 07:38:40 51°14.695 2°44.309 8.6 351 17.4 101960 81
2004-06-07 07:38:47 51°14.689 2°44.266 8.3 350 17.4 101960 81
2004-06-07 07:38:52 51°14.684 2°44.235 8.8 348 17.4 101960 81
2004-06-07 07:38:57 51°14.679 2°44.205 8.7 349 17.4 101960 81
2004-06-07 07:39:01 51°14.675 2°44.181 8.4 348 17.4 101960 81
2004-06-07 07:39:07 51°14.669 2°44.145 8.1 348 17.4 101960 81
2004-06-07 07:39:12 51°14.665 2°44.114 8.6 348 17.4 101960 81
2004-06-07 07:39:15 51°14.662 2°44.096 8.2 348 17.4 101960 81
2004-06-07 07:39:21 51°14.656 2°44.06 8.2 350 17.4 101970 81
2004-06-07 07:39:27 51°14.65 2°44.023 8.9 350 17.4 101970 81
2004-06-07 07:39:31 51°14.646 2°43.999 8.4 349 17.4 101960 81
2004-06-07 07:39:37 51°14.641 2°43.963 8.2 347 17.4 101960 81
2004-06-07 07:39:42 51°14.636 2°43.933 8.2 348 17.4 101960 81
2004-06-07 07:39:47 51°14.631 2°43.902 8.3 349 17.4 101960 81
2004-06-07 07:39:52 51°14.627 2°43.872 8.2 350 17.4 101970 81
2004-06-07 07:39:57 51°14.622 2°43.842 8.1 350 17.4 101970 81
2004-06-07 07:40:02 51°14.617 2°43.811 8.5 349 17.4 101970 81
2004-06-07 07:40:07 51°14.612 2°43.781 8.9 349 17.4 101970 81
2004-06-07 07:40:11 51°14.608 2°43.757 8.4 351 17.4 101970 81
2004-06-07 07:40:17 51°14.603 2°43.72 8.2 350 17.4 101970 81
2004-06-07 07:40:21 51°14.599 2°43.696 8.6 348 17.4 101970 81
2004-06-07 07:40:27 51°14.593 2°43.66 8.5 348 17.4 101970 81
2004-06-07 07:40:31 51°14.59 2°43.635 8.5 349 17.4 101970 81
2004-06-07 07:40:37 51°14.584 2°43.599 8.7 349 17.4 101970 81
2004-06-07 07:40:42 51°14.579 2°43.569 8.7 349 17.4 101970 81
2004-06-07 07:40:47 51°14.574 2°43.539 8.6 350 17.4 101970 81
2004-06-07 07:40:51 51°14.57 2°43.515 8.4 350 17.4 101970 81
2004-06-07 07:40:57 51°14.565 2°43.479 8.5 350 17.4 101970 81
2004-06-07 07:41:02 51°14.56 2°43.449 8.2 350 17.4 101970 81
2004-06-07 07:41:07 51°14.555 2°43.419 8.5 349 17.4 101970 81
2004-06-07 07:41:12 51°14.55 2°43.389 8.5 348 17.4 101970 81
2004-06-07 07:41:17 51°14.546 2°43.359 8.3 351 17.4 101970 81
2004-06-07 07:41:21 51°14.542 2°43.335 8 348 17.4 101970 81
2004-06-07 07:41:27 51°14.536 2°43.299 8.5 349 17.4 101970 81
2004-06-07 07:41:31 51°14.532 2°43.275 7.9 348 17.4 101970 81
2004-06-07 07:41:37 51°14.527 2°43.239 8.4 348 17.4 101970 81
2004-06-07 07:41:42 51°14.522 2°43.209 8.2 348 17.4 101970 81
2004-06-07 07:41:47 51°14.518 2°43.179 8.2 348 17.4 101970 81
2004-06-07 07:41:52 51°14.513 2°43.149 8.6 347 17.4 101970 81
2004-06-07 07:41:57 51°14.509 2°43.119 7.9 348 17.4 101970 81
2004-06-07 07:42:01 51°14.505 2°43.095 8.1 347 17.4 101970 81
2004-06-07 07:42:07 51°14.499 2°43.059 8.1 347 17.4 101970 81
2004-06-07 07:42:11 51°14.496 2°43.035 8.2 347 17.4 101970 81
2004-06-07 07:42:17 51°14.49 2°42.999 8.2 348 17.4 101970 81
2004-06-07 07:42:21 51°14.487 2°42.975 8.2 347 17.4 101970 81
2004-06-07 07:42:27 51°14.482 2°42.939 8.2 348 17.4 101970 81
2004-06-07 07:42:31 51°14.478 2°42.915 8.3 348 17.4 101970 81
2004-06-07 07:42:37 51°14.473 2°42.878 8.4 347 17.4 101970 81
2004-06-07 07:42:42 51°14.468 2°42.848 8.3 347 17.4 101970 81
2004-06-07 07:42:47 51°14.463 2°42.818 7.9 347 17.4 101970 81
2004-06-07 07:42:52 51°14.459 2°42.787 8.1 347 17.4 101970 81
2004-06-07 07:42:57 51°14.455 2°42.757 8.3 347 17.4 101970 81
2004-06-07 07:43:01 51°14.451 2°42.732 8.6 347 17.4 101970 81
2004-06-07 07:43:07 51°14.446 2°42.696 8.7 348 17.4 101970 81
2004-06-07 07:43:11 51°14.442 2°42.671 8.6 348 17.4 101970 81
2004-06-07 07:43:17 51°14.437 2°42.635 7.9 348 17.4 101970 81
2004-06-07 07:43:21 51°14.433 2°42.61 8.4 348 17.4 101970 81
2004-06-07 07:43:27 51°14.428 2°42.574 8.3 348 17.4 101970 81
2004-06-07 07:43:32 51°14.423 2°42.543 8.2 349 17.4 101970 81
2004-06-07 07:43:37 51°14.419 2°42.513 8.3 348 17.4 101970 81
2004-06-07 07:43:42 51°14.415 2°42.482 8.1 349 17.4 101970 80
2004-06-07 07:43:47 51°14.41 2°42.452 8.3 350 17.4 101970 80
2004-06-07 07:43:52 51°14.406 2°42.421 8 349 17.4 101970 80
2004-06-07 07:43:57 51°14.402 2°42.391 7.8 350 17.4 101970 80
2004-06-07 07:44:01 51°14.398 2°42.366 8.5 349 17.4 101970 80
2004-06-07 07:44:07 51°14.392 2°42.33 8 350 17.4 101970 80
2004-06-07 07:44:12 51°14.388 2°42.299 8.1 348 17.4 101970 80
2004-06-07 07:44:17 51°14.384 2°42.269 8.4 350 17.4 101970 80
2004-06-07 07:44:21 51°14.38 2°42.245 8.1 350 17.4 101970 80
2004-06-07 07:44:27 51°14.375 2°42.208 8.2 350 17.4 101970 80
2004-06-07 07:44:32 51°14.371 2°42.177 7.9 351 17.4 101970 80
2004-06-07 07:44:37 51°14.367 2°42.147 7.8 351 17.4 101970 80
2004-06-07 07:44:41 51°14.363 2°42.122 7.7 352 17.4 101970 80
2004-06-07 07:44:47 51°14.358 2°42.086 7.8 350 17.4 101970 80
2004-06-07 07:44:51 51°14.354 2°42.062 7.7 350 17.4 101970 81
2004-06-07 07:44:57 51°14.349 2°42.025 8.2 351 17.4 101970 81
2004-06-07 07:45:01 51°14.346 2°42.001 8.3 351 17.4 101970 81
2004-06-07 07:45:07 51°14.34 2°41.964 8.4 349 17.4 101970 81
2004-06-07 07:45:11 51°14.337 2°41.94 8.2 349 17.4 101970 81
2004-06-07 07:45:17 51°14.332 2°41.903 7.8 352 17.4 101970 81
2004-06-07 07:45:21 51°14.329 2°41.879 8.2 349 17.4 101970 81
2004-06-07 07:45:27 51°14.325 2°41.842 8.1 351 17.4 101970 81
2004-06-07 07:45:31 51°14.322 2°41.818 7.5 350 17.4 101970 81
2004-06-07 07:45:37 51°14.318 2°41.781 8 350 17.4 101970 81
2004-06-07 07:45:42 51°14.314 2°41.75 7.9 350 17.5 101970 81
2004-06-07 07:45:47 51°14.311 2°41.72 8.3 349 17.5 101970 81
2004-06-07 07:45:51 51°14.308 2°41.695 8.4 350 17.4 101970 81
2004-06-07 07:45:57 51°14.304 2°41.658 7.8 351 17.4 101970 81
2004-06-07 07:46:01 51°14.301 2°41.634 8.3 350 17.4 101970 81
2004-06-07 07:46:07 51°14.297 2°41.597 8.2 349 17.4 101970 81
2004-06-07 07:46:11 51°14.294 2°41.573 8.5 349 17.5 101970 81
2004-06-07 07:46:17 51°14.289 2°41.536 8.1 349 17.5 101970 81
2004-06-07 07:46:22 51°14.285 2°41.505 8 351 17.5 101970 81
2004-06-07 07:46:27 51°14.282 2°41.475 8 349 17.5 101970 81
2004-06-07 07:46:31 51°14.279 2°41.45 8.8 348 17.5 101970 81
2004-06-07 07:46:37 51°14.274 2°41.414 8.6 348 17.5 101970 81
2004-06-07 07:46:42 51°14.271 2°41.383 8 349 17.5 101970 81
2004-06-07 07:46:47 51°14.268 2°41.352 7.9 349 17.5 101970 81
2004-06-07 07:46:52 51°14.264 2°41.322 8.4 348 17.5 101970 81
2004-06-07 07:46:57 51°14.261 2°41.291 8.4 349 17.5 101970 81
2004-06-07 07:47:01 51°14.258 2°41.266 7.9 349 17.5 101970 81
2004-06-07 07:47:07 51°14.254 2°41.229 8.2 348 17.5 101970 81
2004-06-07 07:47:12 51°14.251 2°41.198 8.7 348 17.5 101970 81
2004-06-07 07:47:17 51°14.248 2°41.167 8.6 347 17.5 101970 81
2004-06-07 07:47:22 51°14.246 2°41.136 8.6 347 17.5 101970 81
2004-06-07 07:47:27 51°14.243 2°41.105 8.5 347 17.5 101970 81
2004-06-07 07:47:31 51°14.241 2°41.081 8.5 347 17.5 101970 81
2004-06-07 07:47:37 51°14.237 2°41.043 8.7 347 17.5 101970 81
2004-06-07 07:47:42 51°14.234 2°41.013 8.4 348 17.5 101970 81
2004-06-07 07:47:47 51°14.232 2°40.982 8.6 348 17.5 101970 81
2004-06-07 07:47:52 51°14.229 2°40.951 8.1 348 17.5 101970 81
2004-06-07 07:47:57 51°14.226 2°40.92 8 349 17.5 101970 81
2004-06-07 07:48:01 51°14.223 2°40.895 8.1 349 17.4 101980 81
2004-06-07 07:48:07 51°14.22 2°40.858 8.4 349 17.4 101980 81
2004-06-07 07:48:12 51°14.217 2°40.827 8.1 349 17.4 101980 81
2004-06-07 07:48:15 51°14.215 2°40.808 7.9 349 17.4 101980 81
2004-06-07 07:48:21 51°14.212 2°40.771 8.3 348 17.5 101970 81
2004-06-07 07:48:27 51°14.209 2°40.734 8.6 349 17.5 101970 81
2004-06-07 07:48:32 51°14.206 2°40.703 8 350 17.5 101970 81
2004-06-07 07:48:37 51°14.203 2°40.672 8.3 349 17.5 101970 81
2004-06-07 07:48:41 51°14.201 2°40.647 8.5 349 17.5 101970 80
2004-06-07 07:48:47 51°14.197 2°40.61 8.1 348 17.5 101970 80
2004-06-07 07:48:52 51°14.194 2°40.58 7.9 349 17.5 101970 80
2004-06-07 07:48:57 51°14.192 2°40.549 8.3 348 17.5 101970 80
2004-06-07 07:49:02 51°14.189 2°40.518 8.2 348 17.5 101970 80
2004-06-07 07:49:07 51°14.187 2°40.487 8.5 348 17.5 101970 80
2004-06-07 07:49:11 51°14.185 2°40.462 8.2 348 17.5 101970 80
2004-06-07 07:49:17 51°14.183 2°40.425 8.6 349 17.5 101970 80
2004-06-07 07:49:21 51°14.181 2°40.4 8 349 17.5 101970 80
2004-06-07 07:49:27 51°14.179 2°40.362 8.2 349 17.5 101970 80
2004-06-07 07:49:31 51°14.178 2°40.338 8.3 349 17.5 101970 80
2004-06-07 07:49:37 51°14.176 2°40.301 7.9 349 17.5 101970 80
2004-06-07 07:49:41 51°14.175 2°40.276 7.7 350 17.5 101980 80
2004-06-07 07:49:47 51°14.173 2°40.239 8.3 350 17.5 101980 80
2004-06-07 07:49:52 51°14.171 2°40.208 8.4 349 17.5 101980 80
2004-06-07 07:49:57 51°14.169 2°40.177 8 350 17.5 101980 80
2004-06-07 07:50:02 51°14.167 2°40.146 7.8 351 17.5 101970 80
2004-06-07 07:50:07 51°14.166 2°40.115 8.3 350 17.5 101970 80
2004-06-07 07:50:11 51°14.165 2°40.09 7.6 351 17.5 101970 80
2004-06-07 07:50:17 51°14.163 2°40.053 7.8 351 17.5 101970 80
2004-06-07 07:50:21 51°14.161 2°40.028 7.9 352 17.5 101970 80
2004-06-07 07:50:27 51°14.159 2°39.991 7.7 352 17.5 101970 80
2004-06-07 07:50:31 51°14.157 2°39.967 8.1 351 17.5 101970 80
2004-06-07 07:50:37 51°14.154 2°39.93 7.8 351 17.5 101970 80
2004-06-07 07:50:42 51°14.151 2°39.899 8.2 352 17.5 101970 80
2004-06-07 07:50:47 51°14.149 2°39.869 7.7 350 17.5 101970 80
2004-06-07 07:50:52 51°14.147 2°39.838 7.8 351 17.5 101970 80
2004-06-07 07:50:57 51°14.145 2°39.807 8.2 350 17.5 101970 80
2004-06-07 07:51:01 51°14.144 2°39.783 8.4 350 17.5 101970 80
2004-06-07 07:51:07 51°14.142 2°39.746 8 353 17.5 101970 80
2004-06-07 07:51:11 51°14.14 2°39.722 7.9 352 17.5 101970 80
2004-06-07 07:51:17 51°14.137 2°39.685 7.6 351 17.5 101970 80
2004-06-07 07:51:21 51°14.136 2°39.66 8.4 350 17.5 101970 80
2004-06-07 07:51:27 51°14.133 2°39.623 8 352 17.5 101970 80
2004-06-07 07:51:32 51°14.132 2°39.592 8.1 351 17.5 101970 80
2004-06-07 07:51:35 51°14.13 2°39.574 7.8 350 17.5 101970 80
2004-06-07 07:51:41 51°14.128 2°39.537 7.9 352 17.6 101970 81
2004-06-07 07:51:47 51°14.126 2°39.5 8.6 350 17.6 101970 81
2004-06-07 07:51:51 51°14.124 2°39.475 8.1 351 17.5 101970 81
2004-06-07 07:51:57 51°14.121 2°39.438 8.1 351 17.5 101970 81
2004-06-07 07:52:02 51°14.119 2°39.407 8.3 352 17.5 101970 81
2004-06-07 07:52:07 51°14.117 2°39.376 7.8 351 17.5 101970 81
2004-06-07 07:52:12 51°14.115 2°39.345 7.7 352 17.5 101970 81
2004-06-07 07:52:17 51°14.112 2°39.314 8.2 350 17.5 101970 81
2004-06-07 07:52:21 51°14.111 2°39.289 8 351 17.5 101980 81
2004-06-07 07:52:27 51°14.108 2°39.252 7.8 350 17.5 101980 81
2004-06-07 07:52:32 51°14.106 2°39.221 8.4 351 17.5 101970 81
2004-06-07 07:52:37 51°14.104 2°39.191 8 350 17.5 101970 81
2004-06-07 07:52:42 51°14.102 2°39.16 8.5 349 17.5 101970 81
2004-06-07 07:52:47 51°14.1 2°39.129 8.5 350 17.5 101970 81
2004-06-07 07:52:51 51°14.098 2°39.104 8 350 17.5 101980 81
2004-06-07 07:52:57 51°14.096 2°39.067 8 349 17.5 101980 81
2004-06-07 07:53:02 51°14.094 2°39.036 8.1 348 17.5 101970 81
2004-06-07 07:53:07 51°14.092 2°39.005 8.1 348 17.5 101970 81
2004-06-07 07:53:11 51°14.09 2°38.981 8.3 349 17.4 101970 81
2004-06-07 07:53:17 51°14.088 2°38.944 7.9 348 17.4 101970 81
2004-06-07 07:53:21 51°14.087 2°38.919 8.4 348 17.4 101970 81
2004-06-07 07:53:27 51°14.085 2°38.882 8.2 348 17.4 101970 81
2004-06-07 07:53:31 51°14.083 2°38.858 8.6 349 17.4 101970 81
2004-06-07 07:53:37 51°14.08 2°38.82 8.7 349 17.4 101970 81
2004-06-07 07:53:41 51°14.079 2°38.796 8.7 349 17.4 101970 81
2004-06-07 07:53:47 51°14.076 2°38.759 8.7 350 17.4 101970 81
2004-06-07 07:53:49 51°14.076 2°38.747 8.2 348 17.4 101970 81
2004-06-07 07:53:57 51°14.073 2°38.697 8.8 348 17.4 101970 81
2004-06-07 07:54:01 51°14.071 2°38.672 8.4 348 17.4 101980 81
2004-06-07 07:54:07 51°14.069 2°38.634 8.7 349 17.4 101980 81
2004-06-07 07:54:12 51°14.067 2°38.603 8.1 349 17.4 101980 81
2004-06-07 07:54:17 51°14.065 2°38.571 8.3 349 17.4 101980 81
2004-06-07 07:54:22 51°14.063 2°38.54 8.6 349 17.4 101970 80
2004-06-07 07:54:27 51°14.061 2°38.509 9 349 17.4 101970 80
2004-06-07 07:54:32 51°14.058 2°38.478 8.4 350 17.5 101970 80
2004-06-07 07:54:37 51°14.055 2°38.447 8.6 349 17.5 101970 80
2004-06-07 07:54:42 51°14.051 2°38.417 9 349 17.4 101970 80
2004-06-07 07:54:47 51°14.046 2°38.387 8.6 351 17.4 101970 80
2004-06-07 07:54:52 51°14.041 2°38.357 9.2 351 17.3 101970 80
2004-06-07 07:54:57 51°14.036 2°38.327 8.7 352 17.3 101970 80
2004-06-07 07:55:03 51°14.029 2°38.291 8.7 351 17.4 101970 80
2004-06-07 07:55:07 51°14.025 2°38.267 9 352 17.4 101970 80
2004-06-07 07:55:12 51°14.019 2°38.238 8.9 352 17.3 101970 80
2004-06-07 07:55:17 51°14.013 2°38.208 8.4 353 17.3 101970 80
2004-06-07 07:55:22 51°14.008 2°38.178 8.7 351 17.4 101970 80
2004-06-07 07:55:27 51°14.002 2°38.148 8.9 350 17.4 101970 80
2004-06-07 07:55:32 51°13.997 2°38.118 9.1 351 17.3 101970 80
2004-06-07 07:55:37 51°13.992 2°38.088 8.7 351 17.3 101970 80
2004-06-07 07:55:41 51°13.987 2°38.064 8.5 353 17.3 101970 80
2004-06-07 07:55:47 51°13.98 2°38.028 8.8 351 17.3 101970 80
2004-06-07 07:55:51 51°13.976 2°38.004 8.9 352 17.3 101970 80
2004-06-07 07:55:57 51°13.969 2°37.969 9 351 17.3 101970 80
2004-06-07 07:56:02 51°13.964 2°37.939 8.3 351 17.3 101970 80
2004-06-07 07:56:07 51°13.959 2°37.909 8.4 352 17.3 101970 80
2004-06-07 07:56:12 51°13.953 2°37.879 8.5 352 17.3 101970 80
2004-06-07 07:56:17 51°13.948 2°37.849 8.5 351 17.3 101970 80
2004-06-07 07:56:22 51°13.943 2°37.819 9 352 17.3 101970 80
2004-06-07 07:56:27 51°13.937 2°37.789 8.2 351 17.3 101970 80
2004-06-07 07:56:32 51°13.932 2°37.759 8.9 352 17.3 101970 80
2004-06-07 07:56:37 51°13.926 2°37.729 8.4 351 17.3 101970 80
2004-06-07 07:56:41 51°13.922 2°37.704 8.5 351 17.3 101970 80
2004-06-07 07:56:47 51°13.915 2°37.668 8.4 351 17.3 101970 80
2004-06-07 07:56:52 51°13.909 2°37.638 8.6 353 17.3 101970 80
2004-06-07 07:56:57 51°13.904 2°37.608 8.6 351 17.3 101970 80
2004-06-07 07:57:01 51°13.899 2°37.584 8.4 351 17.3 101970 80
2004-06-07 07:57:05 51°13.895 2°37.56 8.4 350 17.3 101970 80
2004-06-07 07:57:12 51°13.887 2°37.517 8.6 353 17.3 101970 80
2004-06-07 07:57:17 51°13.882 2°37.488 8.9 351 17.3 101970 80
2004-06-07 07:57:21 51°13.877 2°37.464 8.8 353 17.3 101970 80
2004-06-07 07:57:27 51°13.869 2°37.429 8.7 352 17.3 101970 80
2004-06-07 07:57:31 51°13.863 2°37.406 8.7 352 17.3 101970 80
2004-06-07 07:57:37 51°13.853 2°37.372 9.1 352 17.3 101970 80
2004-06-07 07:57:41 51°13.847 2°37.349 8.8 353 17.3 101970 80
2004-06-07 07:57:47 51°13.837 2°37.315 9 353 17.3 101970 80
2004-06-07 07:57:52 51°13.829 2°37.287 9.4 353 17.3 101970 80
2004-06-07 07:57:57 51°13.821 2°37.259 9.4 353 17.3 101970 80
2004-06-07 07:58:01 51°13.814 2°37.236 9.2 355 17.3 101970 80
2004-06-07 07:58:07 51°13.803 2°37.203 9.4 354 17.3 101970 80
2004-06-07 07:58:11 51°13.796 2°37.181 9.1 354 17.3 101970 80
2004-06-07 07:58:17 51°13.785 2°37.148 9.4 354 17.3 101970 80
2004-06-07 07:58:21 51°13.778 2°37.126 8.9 354 17.3 101970 80
2004-06-07 07:58:27 51°13.767 2°37.093 8.9 353 17.3 101970 80
2004-06-07 07:58:31 51°13.76 2°37.07 8.6 354 17.3 101970 80
2004-06-07 07:58:37 51°13.749 2°37.037 9.4 353 17.3 101970 80
2004-06-07 07:58:42 51°13.741 2°37.009 8.9 353 17.3 101970 80
2004-06-07 07:58:47 51°13.732 2°36.981 8.9 353 17.3 101970 80
2004-06-07 07:58:51 51°13.725 2°36.959 8.9 353 17.3 101970 81
2004-06-07 07:58:57 51°13.714 2°36.925 8.8 353 17.3 101970 81
2004-06-07 07:59:02 51°13.705 2°36.898 8.8 354 17.3 101970 81
2004-06-07 07:59:07 51°13.696 2°36.87 8.8 353 17.3 101970 81
2004-06-07 07:59:09 51°13.693 2°36.859 9.3 353 17.3 101980 81
2004-06-07 07:59:17 51°13.679 2°36.814 8.6 352 17.3 101980 81
2004-06-07 07:59:22 51°13.67 2°36.786 8.8 354 17.3 101970 81
2004-06-07 07:59:27 51°13.662 2°36.759 9.3 352 17.3 101970 81
2004-06-07 07:59:32 51°13.653 2°36.731 8.8 354 17.3 101970 81
2004-06-07 07:59:37 51°13.644 2°36.703 8.8 353 17.3 101970 81
2004-06-07 07:59:41 51°13.637 2°36.681 9.4 353 17.3 101970 81
2004-06-07 07:59:47 51°13.626 2°36.648 9.4 353 17.3 101970 81
2004-06-07 07:59:52 51°13.617 2°36.62 8.9 353 17.2 101970 81
2004-06-07 07:59:57 51°13.608 2°36.592 8.6 352 17.2 101970 81
2004-06-07 08:00:02 51°13.599 2°36.564 9.1 353 17.2 101970 81
2004-06-07 08:00:07 51°13.591 2°36.536 9.2 352 17.2 101970 81
2004-06-07 08:00:12 51°13.582 2°36.508 8.9 353 17.2 101970 81
2004-06-07 08:00:17 51°13.573 2°36.48 8.9 352 17.2 101970 81
2004-06-07 08:00:21 51°13.566 2°36.458 9.2 353 17.3 101970 81
2004-06-07 08:00:27 51°13.556 2°36.425 9.5 353 17.3 101970 81
2004-06-07 08:00:32 51°13.547 2°36.397 9.3 353 17.2 101970 81
2004-06-07 08:00:37 51°13.538 2°36.369 9 352 17.2 101970 81
2004-06-07 08:00:42 51°13.529 2°36.341 8.9 353 17.2 101970 81
2004-06-07 08:00:47 51°13.52 2°36.314 8.8 355 17.2 101970 81
2004-06-07 08:00:52 51°13.511 2°36.286 9.5 354 17.2 101970 81
2004-06-07 08:00:57 51°13.501 2°36.26 9.2 355 17.2 101970 81
2004-06-07 08:01:02 51°13.491 2°36.233 9.4 355 17.2 101970 81
2004-06-07 08:01:07 51°13.481 2°36.207 9.6 354 17.2 101970 81
2004-06-07 08:01:12 51°13.47 2°36.18 9 354 17.2 101970 81
2004-06-07 08:01:16 51°13.462 2°36.159 8.9 354 17.2 101970 81
2004-06-07 08:01:22 51°13.45 2°36.128 9.4 353 17.2 101970 81
2004-06-07 08:01:27 51°13.439 2°36.102 9 354 17.2 101970 81
2004-06-07 08:01:31 51°13.431 2°36.081 9.6 354 17.2 101970 81
2004-06-07 08:01:37 51°13.419 2°36.049 9.5 353 17.2 101970 81
2004-06-07 08:01:42 51°13.408 2°36.022 9 355 17.2 101970 81
2004-06-07 08:01:47 51°13.398 2°35.996 8.9 353 17.2 101970 81
2004-06-07 08:01:52 51°13.388 2°35.969 9.7 355 17.2 101970 81
2004-06-07 08:01:57 51°13.377 2°35.943 9.6 354 17.2 101970 81
2004-06-07 08:02:00 51°13.371 2°35.928 9.5 356 17.2 101970 80
2004-06-07 08:02:07 51°13.355 2°35.892 9.3 355 17.2 101970 80
2004-06-07 08:02:12 51°13.344 2°35.867 9.3 356 17.2 101970 80
2004-06-07 08:02:17 51°13.332 2°35.842 9.2 355 17.2 101970 80
2004-06-07 08:02:22 51°13.321 2°35.817 9.2 356 17.2 101970 80
2004-06-07 08:02:27 51°13.309 2°35.793 9.3 355 17.2 101970 80
2004-06-07 08:02:32 51°13.297 2°35.768 9.3 356 17.2 101970 80
2004-06-07 08:02:37 51°13.286 2°35.744 9.4 355 17.2 101970 80
2004-06-07 08:02:42 51°13.274 2°35.719 9.7 355 17.2 101970 80
2004-06-07 08:02:47 51°13.262 2°35.694 9.3 356 17.2 101970 80
2004-06-07 08:02:52 51°13.25 2°35.67 9.2 355 17.1 101970 80
2004-06-07 08:02:57 51°13.239 2°35.645 9.9 355 17.1 101970 80
2004-06-07 08:03:02 51°13.227 2°35.62 9.8 354 17.2 101970 80
2004-06-07 08:03:07 51°13.215 2°35.595 9.6 355 17.2 101970 80
2004-06-07 08:03:11 51°13.206 2°35.576 9.7 354 17.2 101970 80
2004-06-07 08:03:16 51°13.195 2°35.551 8.9 355 17.2 101970 80
2004-06-07 08:03:22 51°13.181 2°35.521 9.4 354 17.2 101970 80
2004-06-07 08:03:27 51°13.169 2°35.496 9.6 354 17.2 101970 80
2004-06-07 08:03:32 51°13.157 2°35.472 9.4 354 17.1 101970 80
2004-06-07 08:03:37 51°13.146 2°35.447 9.4 353 17.1 101970 80
2004-06-07 08:03:41 51°13.136 2°35.428 9.9 355 17.1 101970 80
2004-06-07 08:03:47 51°13.122 2°35.398 9.8 354 17.1 101970 80
2004-06-07 08:03:51 51°13.112 2°35.379 9.7 354 17.2 101970 80
2004-06-07 08:03:57 51°13.098 2°35.349 9.8 353 17.2 101970 80
2004-06-07 08:04:02 51°13.086 2°35.325 10.1 354 17.2 101970 80
2004-06-07 08:04:07 51°13.075 2°35.3 10.2 353 17.2 101970 80
2004-06-07 08:04:11 51°13.066 2°35.28 9.6 353 17.1 101970 80
2004-06-07 08:04:17 51°13.052 2°35.25 9.5 352 17.1 101970 80
2004-06-07 08:04:22 51°13.04 2°35.225 10 354 17.1 101970 80
2004-06-07 08:04:27 51°13.029 2°35.201 9.7 354 17.1 101970 80
2004-06-07 08:04:32 51°13.017 2°35.176 9.5 353 17.2 101970 80
2004-06-07 08:04:37 51°13.006 2°35.151 10 353 17.2 101970 80
2004-06-07 08:04:39 51°13.001 2°35.142 9.9 354 17.2 101970 80
2004-06-07 08:04:47 51°12.983 2°35.103 9.4 355 17.2 101970 80
2004-06-07 08:04:52 51°12.971 2°35.078 9.5 354 17.2 101970 80
2004-06-07 08:04:56 51°12.961 2°35.059 10 355 17.2 101970 80
2004-06-07 08:05:02 51°12.946 2°35.032 10.3 355 17.2 101970 80
2004-06-07 08:05:07 51°12.933 2°35.009 10 355 17.2 101970 80
2004-06-07 08:05:11 51°12.923 2°34.99 10.1 355 17.2 101970 80
2004-06-07 08:05:16 51°12.911 2°34.968 10.1 355 17.2 101970 80
2004-06-07 08:05:21 51°12.898 2°34.945 10.1 354 17.2 101970 80
2004-06-07 08:05:27 51°12.883 2°34.917 9.4 355 17.2 101970 80
2004-06-07 08:05:32 51°12.87 2°34.894 9.6 354 17.2 101970 80
2004-06-07 08:05:37 51°12.857 2°34.871 9.4 355 17.2 101970 80
2004-06-07 08:05:42 51°12.845 2°34.848 9.5 354 17.2 101970 80
2004-06-07 08:05:47 51°12.832 2°34.826 9.5 356 17.2 101970 80
2004-06-07 08:05:52 51°12.82 2°34.803 9.6 355 17.2 101970 80
2004-06-07 08:05:57 51°12.807 2°34.78 10.1 355 17.2 101970 80
2004-06-07 08:06:02 51°12.794 2°34.757 10.1 356 17.2 101970 80
2004-06-07 08:06:07 51°12.782 2°34.734 10.2 356 17.2 101970 80
2004-06-07 08:06:11 51°12.771 2°34.716 10.1 357 17.2 101970 80
2004-06-07 08:06:16 51°12.759 2°34.693 10.1 356 17.2 101970 80
2004-06-07 08:06:20 51°12.748 2°34.674 10 356 17.2 101970 80
2004-06-07 08:06:27 51°12.731 2°34.642 10 356 17.2 101970 80
2004-06-07 08:06:31 51°12.721 2°34.624 9.6 356 17.2 101970 80
2004-06-07 08:06:37 51°12.705 2°34.596 9.6 356 17.2 101970 80
2004-06-07 08:06:42 51°12.693 2°34.573 9.5 357 17.2 101970 80
2004-06-07 08:06:47 51°12.68 2°34.55 9.4 355 17.2 101970 80
2004-06-07 08:06:52 51°12.667 2°34.527 10.1 357 17.2 101970 80
2004-06-07 08:06:56 51°12.656 2°34.509 9.8 356 17.2 101970 80
2004-06-07 08:07:02 51°12.641 2°34.481 9.5 356 17.2 101970 80
2004-06-07 08:07:06 51°12.631 2°34.463 9.3 355 17.2 101970 80
2004-06-07 08:07:12 51°12.615 2°34.435 10.1 356 17.2 101970 80
2004-06-07 08:07:17 51°12.603 2°34.411 9.9 356 17.2 101970 80
2004-06-07 08:07:22 51°12.59 2°34.388 10.1 356 17.3 101970 80
2004-06-07 08:07:26 51°12.58 2°34.369 9.6 357 17.3 101970 80
2004-06-07 08:07:32 51°12.565 2°34.341 9.5 357 17.3 101970 80
2004-06-07 08:07:37 51°12.552 2°34.318 9.9 357 17.3 101970 80
2004-06-07 08:07:42 51°12.539 2°34.295 9.9 356 17.3 101970 80
2004-06-07 08:07:46 51°12.528 2°34.276 9.4 356 17.3 101970 80
2004-06-07 08:07:52 51°12.513 2°34.248 10 356 17.3 101970 80
2004-06-07 08:07:57 51°12.5 2°34.225 10 357 17.3 101970 80
2004-06-07 08:08:02 51°12.488 2°34.202 9.6 356 17.3 101970 80
2004-06-07 08:08:08 51°12.472 2°34.174 9.5 359 17.3 101970 80
2004-06-07 08:08:12 51°12.462 2°34.155 9.5 358 17.3 101970 80
2004-06-07 08:08:16 51°12.451 2°34.138 9.6 359 17.3 101970 80
2004-06-07 08:08:22 51°12.434 2°34.112 9.4 359 17.3 101970 80
2004-06-07 08:08:26 51°12.423 2°34.095 9.7 360 17.3 101970 80
2004-06-07 08:08:32 51°12.406 2°34.069 9.6 359 17.3 101970 80
2004-06-07 08:08:37 51°12.393 2°34.047 9.7 360 17.3 101970 80
2004-06-07 08:08:42 51°12.378 2°34.026 9.5 360 17.3 101970 80
2004-06-07 08:08:48 51°12.361 2°34 9.6 360 17.3 101970 80
2004-06-07 08:08:52 51°12.35 2°33.983 10 360 17.3 101970 80
2004-06-07 08:08:57 51°12.336 2°33.962 10.1 360 17.3 101970 80
2004-06-07 08:09:02 51°12.322 2°33.94 9.4 360 17.3 101970 80
2004-06-07 08:09:06 51°12.311 2°33.923 9.3 360 17.3 101970 80
2004-06-07 08:09:12 51°12.295 2°33.897 10.1 359 17.3 101970 80
2004-06-07 08:09:17 51°12.281 2°33.875 9.5   17.3 101970 80
2004-06-07 08:09:22 51°12.267 2°33.854 9.3 359 17.3 101970 80
2004-06-07 08:09:28 51°12.25 2°33.828 9.6 359 17.3 101970 80
2004-06-07 08:09:32 51°12.239 2°33.811 9.6 360 17.3 101970 80
2004-06-07 08:09:36 51°12.228 2°33.793 9.4 360 17.3 101970 80
2004-06-07 08:09:42 51°12.211 2°33.768 9.8 360 17.3 101970 80
2004-06-07 08:09:46 51°12.2 2°33.75 9.3 360 17.3 101970 80
2004-06-07 08:09:52 51°12.183 2°33.724 9.6 360 17.3 101970 80
2004-06-07 08:09:57 51°12.169 2°33.703 9.6 359 17.3 101970 80
2004-06-07 08:10:02 51°12.155 2°33.681 9.7 359 17.3 101970 80
2004-06-07 08:10:07 51°12.141 2°33.659 10 1 17.3 101970 80
2004-06-07 08:10:12 51°12.127 2°33.638 10.1   17.3 101970 80
2004-06-07 08:10:17 51°12.112 2°33.617 9.5 1 17.3 101970 80
2004-06-07 08:10:22 51°12.098 2°33.596 9.5   17.3 101970 79
2004-06-07 08:10:26 51°12.087 2°33.58 9.2 1 17.3 101970 79
2004-06-07 08:10:32 51°12.071 2°33.558 8.6 1 17.3 101970 79
2004-06-07 08:10:37 51°12.059 2°33.541 8.5 2 17.3 101970 79
2004-06-07 08:10:42 51°12.048 2°33.525 7.8 1 17.3 101970 79
2004-06-07 08:10:48 51°12.034 2°33.507 8.1 1 17.3 101970 79
2004-06-07 08:10:52 51°12.026 2°33.496 7.2 1 17.4 101980 79
2004-06-07 08:10:57 51°12.015 2°33.483 7.4 2 17.4 101980 79
2004-06-07 08:11:02 51°12.006 2°33.47 7.2 2 17.4 101970 79
2004-06-07 08:11:07 51°11.996 2°33.459 6.8 2 17.4 101970 79
2004-06-07 08:11:12 51°11.987 2°33.447 6.8 2 17.4 101980 79
2004-06-07 08:11:17 51°11.977 2°33.436 6.8 2 17.4 101980 79
2004-06-07 08:11:22 51°11.969 2°33.425 6.6 2 17.4 101980 79
2004-06-07 08:11:26 51°11.962 2°33.417 6.2 4 17.4 101980 79
2004-06-07 08:11:32 51°11.952 2°33.405 6.1 4 17.4 101980 79
2004-06-07 08:11:37 51°11.943 2°33.396 6.2 8 17.4 101980 79
2004-06-07 08:11:42 51°11.935 2°33.388 5.7 8 17.4 101980 79
2004-06-07 08:11:46 51°11.929 2°33.382 5.6 9 17.4 101980 79
2004-06-07 08:11:52 51°11.92 2°33.375 5.5 12 17.4 101980 79
2004-06-07 08:11:54 51°11.917 2°33.373 5.5 13 17.4 101980 79
2004-06-07 08:12:02 51°11.905 2°33.365 5.3 14 17.4 101990 79
2004-06-07 08:12:06 51°11.899 2°33.361 5.2 16 17.4 101990 79
2004-06-07 08:12:12 51°11.891 2°33.356 4.9 17 17.4 101990 79
2004-06-07 08:12:16 51°11.886 2°33.354 4.8 20 17.4 101990 79
2004-06-07 08:12:22 51°11.879 2°33.35 4.5 20 17.4 101990 79
2004-06-07 08:12:27 51°11.873 2°33.347 4.4 22 17.4 101990 79
2004-06-07 08:12:32 51°11.868 2°33.345 4.4 22 17.4 101990 79
2004-06-07 08:12:37 51°11.863 2°33.342 4.2 22 17.4 101990 79
2004-06-07 08:12:42 51°11.858 2°33.339 4.2 20 17.4 101990 79
2004-06-07 08:12:46 51°11.855 2°33.337 3.9 18 17.4 101990 79
2004-06-07 08:12:52 51°11.849 2°33.333 4 18 17.4 101990 79
2004-06-07 08:12:57 51°11.845 2°33.331 3.8 16 17.4 101990 79
2004-06-07 08:13:02 51°11.841 2°33.327 3.9 15 17.5 101980 79
2004-06-07 08:13:07 51°11.836 2°33.324 3.8 15 17.5 101980 79
2004-06-07 08:13:12 51°11.832 2°33.321 4 15 17.5 101990 79
2004-06-07 08:13:16 51°11.829 2°33.318 4 14 17.5 101990 79
2004-06-07 08:13:21 51°11.825 2°33.315 4 14 17.5 101990 79
2004-06-07 08:13:27 51°11.821 2°33.311 3.7 14 17.5 101990 79
2004-06-07 08:13:31 51°11.818 2°33.308 3.8 14 17.5 101990 79
2004-06-07 08:13:37 51°11.814 2°33.304 3.9 14 17.5 101990 79
2004-06-07 08:13:42 51°11.81 2°33.301 4 14 17.5 101990 79
2004-06-07 08:13:47 51°11.806 2°33.298 3.9 13 17.5 101990 79
2004-06-07 08:13:52 51°11.803 2°33.294 3.7 13 17.5 101990 78
2004-06-07 08:13:57 51°11.799 2°33.291 3.6 13 17.5 101990 78
2004-06-07 08:14:02 51°11.796 2°33.287 3.6 13 17.5 101990 78
2004-06-07 08:14:04 51°11.795 2°33.286 3.6 13 17.5 101990 78
2004-06-07 08:14:12 51°11.79 2°33.28 3.5 13 17.5 101990 78
2004-06-07 08:14:17 51°11.787 2°33.277 3.4 13 17.5 101990 78
2004-06-07 08:14:22 51°11.784 2°33.273 3.6 13 17.6 101990 78
2004-06-07 08:14:27 51°11.781 2°33.27 3.6 13 17.6 101990 78
2004-06-07 08:14:32 51°11.778 2°33.267 3.5 13 17.5 101990 78
2004-06-07 08:14:37 51°11.775 2°33.263 3.5 13 17.5 101990 78
2004-06-07 08:14:42 51°11.772 2°33.26 3.4 13 17.6 101990 78
2004-06-07 08:14:45 51°11.77 2°33.258 3.4 12 17.6 101990 78
2004-06-07 08:14:52 51°11.766 2°33.253 3.5 13 17.6 101990 78
2004-06-07 08:14:57 51°11.763 2°33.249 3.7 13 17.6 101990 78
2004-06-07 08:15:00 51°11.76 2°33.247 3.7 13 17.6 101990 78
2004-06-07 08:15:06 51°11.756 2°33.242 3.9 12 17.6 101990 78
2004-06-07 08:15:12 51°11.751 2°33.237 3.9 12 17.6 101990 78
2004-06-07 08:15:17 51°11.747 2°33.233 4.1 13 17.6 101990 78
2004-06-07 08:15:22 51°11.743 2°33.229 4 13 17.6 101990 78
2004-06-07 08:15:26 51°11.739 2°33.226 4.1 13 17.6 101990 78
2004-06-07 08:15:32 51°11.734 2°33.22 4.1 13 17.6 101990 78
2004-06-07 08:15:36 51°11.73 2°33.217 4.3 13 17.6 101990 78
2004-06-07 08:15:42 51°11.724 2°33.212 4.2 13 17.6 101990 78
2004-06-07 08:15:47 51°11.719 2°33.207 4.3 12 17.6 101990 78
2004-06-07 08:15:52 51°11.714 2°33.202 4.4 13 17.6 101990 78
2004-06-07 08:15:57 51°11.709 2°33.198 4.2 12 17.6 101990 78
2004-06-07 08:16:02 51°11.704 2°33.193 4.1 12 17.6 101990 78
2004-06-07 08:16:07 51°11.699 2°33.188 4.3 12 17.6 101990 78
2004-06-07 08:16:12 51°11.693 2°33.183 4.2 12 17.6 101990 78
2004-06-07 08:16:17 51°11.688 2°33.178 4.5 11 17.6 101990 78
2004-06-07 08:16:20 51°11.685 2°33.175 4.4 11 17.6 101990 78
2004-06-07 08:16:26 51°11.678 2°33.169 4.4 11 17.6 101990 78
2004-06-07 08:16:32 51°11.672 2°33.163 4.3 11 17.6 101990 78
2004-06-07 08:16:36 51°11.667 2°33.159 4.3 11 17.6 101990 78
2004-06-07 08:16:42 51°11.66 2°33.153 4.5 11 17.6 101990 78
2004-06-07 08:16:46 51°11.656 2°33.149 4.6 11 17.6 101990 78
2004-06-07 08:16:52 51°11.649 2°33.143 4.4 11 17.6 101990 78
2004-06-07 08:16:57 51°11.644 2°33.138 4.5 11 17.6 101990 78